Marfa, TX

10:13 PM CDT on September 19, 2014 (GMT -0500)
Pecos Municipal | Change Station
CLOSE
Current Station
Airport
Location: Pecos,
Elevation: 2612 ft
Nearby Weather Stations
Active Advisory: Flash Flood Warning

Elev 2612 ft 31.38 °N, 103.51 °W | Updated 18 minutes ago

Rain
Rain
73 °F
Feels Like 73 °F
N
16
Wind Variable Wind from ESE
Gusts 26 mph

Today
High -- | Low -- °F
--% Chance of Precip.
Yesterday
High -- | Low -- °F
Precip. -- in
7:42 AM 7:56 PM
Waning Crescent, 15% visible
Pressure 29.95 in
Visibility 10.0 miles
Clouds Scattered Clouds 7000 ft
Mostly Cloudy 8500 ft
Dew Point 68 °F
Humidity 85%
Rainfall 0.50 in
Snow Depth Not available.
UV 0 out of 12
Pollen 5.40 out of 12
Air Quality Not available.
Flu Activity Not available.
METAR KPEQ 200255Z AUTO 11014G23KT 10SM TS SCT070 BKN085 23/20 A2995 RMK AO2 LTG DSNT NE THRU S T02290203

More Conditions Fewer Conditions

Pressure 29.95 in
Visibility 10.0 miles
Clouds Scattered Clouds 7000 ft
Mostly Cloudy 8500 ft
Dew Point 68 °F
Humidity 85%
Rainfall 0.50 in
Snow Depth Not available.
UV 0 out of 12
Pollen 5.40 out of 12
Air Quality Not available.
Flu Activity Not available.
METAR KPEQ 200255Z AUTO 11014G23KT 10SM TS SCT070 BKN085 23/20 A2995 RMK AO2 LTG DSNT NE THRU S T02290203

More Conditions Fewer Conditions

10-Day Weather Forecast

Almanac

Astronomy

Sep. 19, 2014 Rise Set
Actual Time 7:42 AM CDT 7:56 PM CDT
Civil Twilight 7:18 AM CDT 8:20 PM CDT
Nautical Twilight 6:50 AM CDT 8:48 PM CDT
Astronomical Twilight 6:22 AM CDT 9:16 PM CDT
Moon 3:44 AM CDT (9/19) 5:14 PM CDT (9/19)
Length of Visible Light 13h 01m
Length of Day
12h 13m
Tomorrow will be 1m 48s shorter.
Waning Crescent, 15% of the Moon is Illuminated
Today
Waning Crescent
Sep 24
New
Oct 1
First Quarter
Oct 8
Full
Oct 15
Last Quarter

Today's Extremes

State Highs State Lows

Community

WunderPhotos

Upload Photos

1,754,775 photos uploaded!

WunderBlogs® & News

Nearby

Snow Depth

Station Depth Elevation
No new snow has been reported.

Earthquake Activity

City Distance Mag. Time & Date
No recent earthquake activity has been reported nearby.
Minimum magnitude displayed is 2.5.

Coastal Water Temperatures

Place Temperature
No Stations Reporting

Nearby Weather Stations